createdAt,value
2023-01-05T00:00:00.203Z,33.58
2023-01-05T00:02:29.520Z,41.17
2023-01-05T00:04:57.816Z,35.75
2023-01-05T00:07:27.873Z,34.85
2023-01-05T00:09:55.817Z,41.40
2023-01-05T00:12:42.133Z,32.88
2023-01-05T00:15:31.063Z,39.00
2023-01-05T00:18:18.540Z,30.00
2023-01-05T00:21:04.943Z,33.47
2023-01-05T00:23:32.947Z,33.92
2023-01-05T00:26:00.865Z,36.85
2023-01-05T00:28:30.409Z,34.78
2023-01-05T00:30:58.427Z,30.52
2023-01-05T00:33:31.772Z,32.03
2023-01-05T00:36:01.305Z,31.90
2023-01-05T00:38:29.242Z,24.48
2023-01-05T00:40:57.585Z,23.10
2023-01-05T00:43:28.075Z,21.70
2023-01-05T00:45:56.010Z,18.20
2023-01-05T00:48:23.766Z,21.38
2023-01-05T00:50:51.804Z,17.10
2023-01-05T00:53:20.728Z,19.33
2023-01-05T00:56:01.385Z,16.08
2023-01-05T00:58:31.479Z,21.40
2023-01-05T01:01:00.340Z,17.88
2023-01-05T01:03:28.429Z,19.35
2023-01-05T01:06:00.383Z,14.60
2023-01-05T01:08:30.520Z,18.92
2023-01-05T01:11:04.488Z,15.45
2023-01-05T01:13:32.786Z,13.55
2023-01-05T01:16:10.758Z,16.42
2023-01-05T01:18:38.968Z,14.48
2023-01-05T01:21:12.854Z,16.02
2023-01-05T01:23:43.229Z,13.52
2023-01-05T01:26:13.109Z,12.93
2023-01-05T01:28:47.005Z,13.55
2023-01-05T01:31:19.681Z,12.32
2023-01-05T01:33:47.723Z,12.68
2023-01-05T01:36:16.452Z,14.65
2023-01-05T01:38:44.335Z,24.05
2023-01-05T01:41:14.487Z,43.13
2023-01-05T01:43:47.768Z,46.95
2023-01-05T01:46:18.472Z,44.53
2023-01-05T01:48:53.712Z,33.85
2023-01-05T01:51:39.181Z,22.73
2023-01-05T01:54:10.628Z,25.75
2023-01-05T01:56:42.748Z,22.83
2023-01-05T01:59:10.755Z,16.15
2023-01-05T02:01:39.459Z,15.18
2023-01-05T02:04:11.132Z,13.75
2023-01-05T02:06:39.230Z,9.93
2023-01-05T02:09:07.165Z,11.68
2023-01-05T02:12:07.215Z,10.80
2023-01-05T02:14:43.439Z,8.57
2023-01-05T02:17:23.833Z,9.52
2023-01-05T02:20:46.417Z,9.18
2023-01-05T02:23:26.548Z,10.52
2023-01-05T02:26:00.983Z,9.40
2023-01-05T02:28:51.114Z,7.37
2023-01-05T02:31:21.812Z,9.05
2023-01-05T02:33:56.356Z,8.85
2023-01-05T02:36:43.522Z,14.07
2023-01-05T02:39:19.733Z,8.10
2023-01-05T02:42:13.292Z,8.05
2023-01-05T02:44:42.503Z,8.10
2023-01-05T02:47:25.657Z,6.72
2023-01-05T02:50:03.294Z,8.38
2023-01-05T02:52:47.708Z,7.82
2023-01-05T02:55:19.898Z,10.88
2023-01-05T02:58:06.508Z,6.47
2023-01-05T03:00:53.374Z,7.40
2023-01-05T03:03:27.543Z,9.50
2023-01-05T03:06:03.304Z,8.20
2023-01-05T03:08:33.095Z,8.73
2023-01-05T03:11:29.079Z,7.78
2023-01-05T03:14:06.875Z,8.48
2023-01-05T03:16:36.778Z,6.88
2023-01-05T03:19:31.296Z,9.90
2023-01-05T03:22:20.490Z,9.20
2023-01-05T03:25:08.604Z,8.35
2023-01-05T03:27:58.767Z,9.90
2023-01-05T03:30:52.507Z,9.43
2023-01-05T03:34:15.749Z,7.93
2023-01-05T03:36:52.471Z,9.90
2023-01-05T03:39:20.606Z,9.73
2023-01-05T03:41:49.060Z,12.95
2023-01-05T03:44:17.098Z,11.88
2023-01-05T03:46:47.379Z,12.48
2023-01-05T03:49:17.872Z,9.75
2023-01-05T03:51:46.198Z,12.70
2023-01-05T03:54:14.873Z,14.38
2023-01-05T03:56:46.045Z,11.45
2023-01-05T03:59:14.983Z,9.25
2023-01-05T04:01:44.234Z,9.30
2023-01-05T04:04:14.873Z,13.00
2023-01-05T04:06:42.712Z,11.57
2023-01-05T04:09:12.481Z,8.60
2023-01-05T04:11:42.704Z,9.23
2023-01-05T04:14:10.548Z,7.05
2023-01-05T04:16:40.529Z,10.82
2023-01-05T04:19:20.102Z,12.05
2023-01-05T04:21:52.175Z,12.95
2023-01-05T04:24:21.593Z,8.85
2023-01-05T04:26:49.437Z,8.10
2023-01-05T04:29:19.952Z,12.68
2023-01-05T04:31:50.979Z,10.05
2023-01-05T04:34:21.137Z,8.95
2023-01-05T04:36:51.220Z,7.43
2023-01-05T04:39:21.846Z,7.25
2023-01-05T04:41:50.800Z,7.32
2023-01-05T04:44:20.629Z,8.60
2023-01-05T04:46:49.975Z,10.25
2023-01-05T04:49:19.199Z,8.02
2023-01-05T04:51:50.530Z,6.47
2023-01-05T04:54:21.665Z,8.05
2023-01-05T04:56:49.787Z,8.88
2023-01-05T04:59:18.160Z,7.30
2023-01-05T05:01:49.945Z,7.07
2023-01-05T05:04:17.904Z,8.15
2023-01-05T05:06:47.255Z,8.23
2023-01-05T05:09:18.065Z,6.45
2023-01-05T05:11:46.779Z,7.65
2023-01-05T05:14:15.559Z,6.93
2023-01-05T05:16:44.646Z,10.35
2023-01-05T05:19:12.945Z,6.72
2023-01-05T05:21:40.767Z,7.00
2023-01-05T05:24:08.984Z,6.82
2023-01-05T05:26:41.174Z,6.07
2023-01-05T05:29:09.683Z,13.48
2023-01-05T05:31:37.790Z,17.02
2023-01-05T05:34:05.633Z,8.52
2023-01-05T05:36:36.312Z,6.43
2023-01-05T05:39:04.336Z,8.80
2023-01-05T05:41:32.131Z,5.53
2023-01-05T05:44:01.156Z,5.25
2023-01-05T05:46:29.593Z,7.88
2023-01-05T05:48:57.810Z,8.50
2023-01-05T05:51:25.903Z,7.40
2023-01-05T05:53:54.122Z,7.05
2023-01-05T05:56:21.937Z,7.68
2023-01-05T05:58:53.596Z,5.95
2023-01-05T06:01:23.982Z,7.70
2023-01-05T06:03:52.210Z,5.82
2023-01-05T06:06:20.231Z,6.35
2023-01-05T06:08:48.107Z,9.25
2023-01-05T06:11:16.091Z,7.32
2023-01-05T06:13:44.092Z,8.93
2023-01-05T06:16:11.947Z,5.47
2023-01-05T06:18:40.294Z,6.72
2023-01-05T06:21:13.043Z,9.32
2023-01-05T06:23:41.743Z,7.57
2023-01-05T06:26:10.185Z,10.25
2023-01-05T06:28:38.631Z,10.20
2023-01-05T06:31:06.682Z,11.13
2023-01-05T06:33:34.761Z,10.57
2023-01-05T06:36:03.788Z,11.38
2023-01-05T06:39:09.957Z,8.07
2023-01-05T06:41:38.670Z,8.38
2023-01-05T06:44:06.980Z,11.15
2023-01-05T06:46:34.852Z,10.18
2023-01-05T06:49:02.969Z,9.50
2023-01-05T06:51:31.785Z,9.07
2023-01-05T06:54:00.087Z,12.52
2023-01-05T06:56:28.507Z,9.98
2023-01-05T06:58:56.575Z,11.00
2023-01-05T07:01:27.556Z,12.68
2023-01-05T07:03:55.701Z,9.43
2023-01-05T11:30:27.998Z,25.60
2023-01-05T11:33:03.143Z,27.83
2023-01-05T11:35:42.871Z,29.20
2023-01-05T11:38:42.136Z,28.48
2023-01-05T11:46:07.486Z,28.60
2023-01-05T11:49:43.476Z,29.48
2023-01-05T11:52:36.807Z,29.58
2023-01-05T11:55:43.507Z,29.08
2023-01-05T11:58:44.923Z,25.13
2023-01-05T12:03:03.247Z,30.42
2023-01-05T12:06:23.309Z,29.20
2023-01-05T12:08:58.956Z,26.70
2023-01-05T12:11:31.011Z,26.27
2023-01-05T12:14:23.601Z,26.55
2023-01-05T12:16:56.722Z,27.17
2023-01-05T12:20:08.616Z,29.50
2023-01-05T12:27:47.953Z,29.70
2023-01-05T12:34:13.296Z,35.22
2023-01-05T12:37:07.912Z,27.60
2023-01-05T12:39:56.326Z,34.15
2023-01-05T12:43:11.116Z,28.05
2023-01-05T12:45:42.743Z,32.17
2023-01-05T12:48:30.799Z,34.88
2023-01-05T12:51:52.422Z,29.37
2023-01-05T12:54:42.790Z,32.33
2023-01-05T12:57:19.640Z,24.08
2023-01-05T13:00:04.761Z,29.20
2023-01-05T13:02:44.638Z,26.65
2023-01-05T13:05:29.445Z,30.27
2023-01-05T13:08:04.571Z,31.48
2023-01-05T13:10:59.822Z,29.95
2023-01-05T13:13:37.939Z,28.77
2023-01-05T13:16:27.896Z,32.42
2023-01-05T13:19:24.161Z,72.05
2023-01-05T13:21:54.003Z,46.60
2023-01-05T13:25:01.775Z,39.45
2023-01-05T13:30:05.610Z,28.85
2023-01-05T13:33:03.493Z,35.72
2023-01-05T13:36:30.580Z,30.73
2023-01-05T13:39:17.184Z,26.05
2023-01-05T13:41:47.948Z,31.02
2023-01-05T13:44:43.907Z,27.23
2023-01-05T13:47:45.183Z,28.00
2023-01-05T13:50:51.524Z,24.40
2023-01-05T13:53:43.177Z,22.63
2023-01-05T13:56:28.210Z,25.30
2023-01-05T13:58:59.952Z,22.40
2023-01-05T14:01:39.730Z,25.55
2023-01-05T14:04:25.976Z,19.52
2023-01-05T14:06:58.960Z,23.67
2023-01-05T14:09:37.846Z,19.13
2023-01-05T14:12:09.366Z,20.58
2023-01-05T14:15:00.197Z,25.13
2023-01-05T14:17:55.900Z,26.05
2023-01-05T14:20:51.819Z,25.17
2023-01-05T14:23:26.792Z,25.70
2023-01-05T14:27:32.622Z,21.50
2023-01-05T14:30:05.793Z,22.45
2023-01-05T14:32:39.616Z,24.65
2023-01-05T14:35:24.125Z,28.10
2023-01-05T14:38:24.025Z,26.33
2023-01-05T14:40:56.428Z,29.55
2023-01-05T14:43:58.512Z,29.38
2023-01-05T14:46:47.314Z,25.45
2023-01-05T14:49:32.173Z,24.45
2023-01-05T14:53:01.013Z,26.83
2023-01-05T14:57:07.411Z,20.63
2023-01-05T14:59:47.791Z,25.20
2023-01-05T15:02:24.162Z,26.85
2023-01-05T15:04:55.294Z,24.05
2023-01-05T15:08:49.847Z,24.70
2023-01-05T15:11:51.952Z,25.70
2023-01-05T15:14:38.510Z,26.80
2023-01-05T15:17:36.260Z,25.95
2023-01-05T15:20:23.268Z,26.67
2023-01-05T15:24:01.701Z,24.08
2023-01-05T15:26:51.430Z,27.13
2023-01-05T15:29:47.867Z,23.58
2023-01-05T15:32:25.769Z,22.00
2023-01-05T15:35:30.522Z,23.13
2023-01-05T15:38:26.319Z,27.80
2023-01-05T15:41:05.507Z,26.77
2023-01-05T15:43:39.333Z,26.50
2023-01-05T15:46:18.059Z,30.73
2023-01-05T15:48:52.015Z,30.15
2023-01-05T15:51:59.596Z,22.35
2023-01-05T15:54:36.326Z,23.77
2023-01-05T15:57:20.887Z,20.88
2023-01-05T15:59:54.353Z,23.52
2023-01-05T16:02:33.480Z,31.73
2023-01-05T16:05:37.184Z,34.97
2023-01-05T16:08:16.526Z,30.70
2023-01-05T16:10:57.324Z,22.38
2023-01-05T16:13:35.969Z,25.70
2023-01-05T16:16:12.886Z,25.90
2023-01-05T16:18:52.783Z,28.65
2023-01-05T16:21:36.734Z,34.03
2023-01-05T20:08:15.033Z,37.00
2023-01-05T20:10:44.272Z,39.83
2023-01-05T20:13:12.735Z,43.05
2023-01-05T20:15:58.747Z,38.90
2023-01-05T20:18:33.633Z,36.05
2023-01-05T20:21:05.416Z,37.42
2023-01-05T20:23:42.664Z,37.45
2023-01-05T20:26:13.056Z,38.40
2023-01-05T20:28:41.387Z,35.70
2023-01-05T20:31:20.988Z,44.00
2023-01-05T20:33:52.102Z,38.65
2023-01-05T20:36:20.568Z,39.08
2023-01-05T20:38:48.647Z,40.70
2023-01-05T20:41:24.863Z,35.85
2023-01-05T20:44:05.562Z,34.95
2023-01-05T20:46:39.569Z,34.17
2023-01-05T20:49:09.725Z,35.15
2023-01-05T20:52:00.106Z,33.00
2023-01-05T20:54:29.181Z,30.73
2023-01-05T20:57:02.267Z,30.92
2023-01-05T20:59:32.259Z,30.38
2023-01-05T21:02:00.741Z,34.30
2023-01-05T21:04:29.492Z,30.35
2023-01-05T21:07:02.947Z,28.10
2023-01-05T21:09:31.307Z,31.15
2023-01-05T21:12:02.181Z,31.10
2023-01-05T21:14:30.989Z,33.30
2023-01-05T21:16:58.932Z,31.85
2023-01-05T21:19:27.401Z,31.05
2023-01-05T21:21:57.174Z,24.35
2023-01-05T21:24:26.120Z,26.08
2023-01-05T21:26:54.398Z,21.27
2023-01-05T21:29:26.167Z,20.67
2023-01-05T21:31:55.909Z,26.17
2023-01-05T21:34:24.837Z,22.90
2023-01-05T21:36:53.053Z,22.20
2023-01-05T21:39:24.753Z,25.73
2023-01-05T21:42:11.336Z,25.85
2023-01-05T21:47:08.482Z,21.83
2023-01-05T21:49:36.779Z,21.88
2023-01-05T21:52:24.493Z,21.95
2023-01-05T21:55:11.144Z,25.70
2023-01-05T21:57:39.209Z,20.02
2023-01-05T22:00:08.592Z,20.33
2023-01-05T22:02:37.754Z,22.77
2023-01-05T22:05:07.924Z,25.83
2023-01-05T22:07:35.957Z,26.63
2023-01-05T22:10:04.878Z,22.95
2023-01-05T22:12:54.985Z,24.52
2023-01-05T22:15:24.880Z,21.95
2023-01-05T22:17:53.574Z,20.85
2023-01-05T22:20:22.597Z,20.80
2023-01-05T22:22:50.507Z,17.92
2023-01-05T22:25:20.048Z,19.17
2023-01-05T22:27:49.172Z,17.10
2023-01-05T22:31:15.224Z,22.55
2023-01-05T22:33:52.755Z,22.13
2023-01-05T22:36:22.313Z,23.20
2023-01-05T22:38:53.453Z,20.10
2023-01-05T22:41:27.382Z,20.27
2023-01-05T22:44:22.596Z,18.65
2023-01-05T22:47:00.378Z,20.10
2023-01-05T22:49:59.970Z,20.88
2023-01-05T22:52:30.911Z,20.88
2023-01-05T22:55:00.643Z,28.70
2023-01-05T22:57:29.164Z,18.80
2023-01-05T23:02:48.257Z,18.05
2023-01-05T23:05:22.647Z,17.63
2023-01-05T23:08:26.305Z,18.65
2023-01-05T23:11:05.088Z,18.50
2023-01-05T23:13:33.697Z,17.75
2023-01-05T23:16:07.390Z,15.68
2023-01-05T23:18:36.099Z,14.05
2023-01-05T23:21:07.067Z,20.38
2023-01-05T23:23:37.929Z,17.40
2023-01-05T23:26:13.369Z,17.63
2023-01-05T23:28:44.078Z,18.00
2023-01-05T23:31:15.986Z,18.23
2023-01-05T23:33:45.918Z,18.17
2023-01-05T23:36:18.049Z,14.88
2023-01-05T23:39:02.115Z,16.25
2023-01-05T23:41:37.714Z,16.38
2023-01-05T23:44:25.740Z,17.52
2023-01-05T23:46:53.773Z,18.05
2023-01-05T23:52:39.786Z,15.10
2023-01-05T23:58:05.264Z,13.35
